sensor_id;sensor_type;location;lat;lon;timestamp;temperature;humidity
9193;DHT22;4631;49.296;10.560;2024-01-11T00:00:52;-5.70;99.90
9193;DHT22;4631;49.296;10.560;2024-01-11T00:03:20;-5.80;99.90
9193;DHT22;4631;49.296;10.560;2024-01-11T00:05:47;-5.70;99.90
9193;DHT22;4631;49.296;10.560;2024-01-11T00:08:13;-5.70;99.90
9193;DHT22;4631;49.296;10.560;2024-01-11T00:10:40;-5.80;99.90
9193;DHT22;4631;49.296;10.560;2024-01-11T00:13:06;-5.80;99.90
9193;DHT22;4631;49.296;10.560;2024-01-11T00:15:33;-5.80;99.90
9193;DHT22;4631;49.296;10.560;2024-01-11T00:18:00;-5.80;99.90
9193;DHT22;4631;49.296;10.560;2024-01-11T00:20:29;-5.80;99.90
9193;DHT22;4631;49.296;10.560;2024-01-11T00:22:55;-5.80;99.90
9193;DHT22;4631;49.296;10.560;2024-01-11T00:25:22;-5.80;99.90
9193;DHT22;4631;49.296;10.560;2024-01-11T00:27:48;-5.80;99.90
9193;DHT22;4631;49.296;10.560;2024-01-11T00:30:15;-5.90;99.90
9193;DHT22;4631;49.296;10.560;2024-01-11T00:32:42;-5.90;99.90
9193;DHT22;4631;49.296;10.560;2024-01-11T00:35:08;-5.90;99.90
9193;DHT22;4631;49.296;10.560;2024-01-11T00:37:36;-5.90;99.90
9193;DHT22;4631;49.296;10.560;2024-01-11T00:40:03;-5.90;99.90
9193;DHT22;4631;49.296;10.560;2024-01-11T00:42:31;-5.90;99.90
9193;DHT22;4631;49.296;10.560;2024-01-11T00:44:57;-5.90;99.90
9193;DHT22;4631;49.296;10.560;2024-01-11T00:47:24;-5.90;99.90
9193;DHT22;4631;49.296;10.560;2024-01-11T00:49:51;-5.90;99.90
9193;DHT22;4631;49.296;10.560;2024-01-11T00:52:17;-5.90;99.90
9193;DHT22;4631;49.296;10.560;2024-01-11T00:54:45;-6.00;99.90
9193;DHT22;4631;49.296;10.560;2024-01-11T00:57:12;-6.00;99.90
9193;DHT22;4631;49.296;10.560;2024-01-11T00:59:39;-6.00;99.90
9193;DHT22;4631;49.296;10.560;2024-01-11T01:02:06;-6.00;99.90
9193;DHT22;4631;49.296;10.560;2024-01-11T01:04:32;-6.00;99.90
9193;DHT22;4631;49.296;10.560;2024-01-11T01:06:59;-6.00;99.90
9193;DHT22;4631;49.296;10.560;2024-01-11T01:09:26;-6.00;99.90
9193;DHT22;4631;49.296;10.560;2024-01-11T01:11:54;-6.00;99.90
9193;DHT22;4631;49.296;10.560;2024-01-11T01:14:20;-6.10;99.90
9193;DHT22;4631;49.296;10.560;2024-01-11T01:16:47;-6.10;99.90
9193;DHT22;4631;49.296;10.560;2024-01-11T01:19:13;-6.10;99.90
9193;DHT22;4631;49.296;10.560;2024-01-11T01:21:40;-6.20;99.90
9193;DHT22;4631;49.296;10.560;2024-01-11T01:24:07;-6.20;99.90
9193;DHT22;4631;49.296;10.560;2024-01-11T01:26:33;-6.20;99.90
9193;DHT22;4631;49.296;10.560;2024-01-11T01:29:02;-6.20;99.90
9193;DHT22;4631;49.296;10.560;2024-01-11T01:31:28;-6.20;99.90
9193;DHT22;4631;49.296;10.560;2024-01-11T01:33:55;-6.20;99.90
9193;DHT22;4631;49.296;10.560;2024-01-11T01:36:21;-6.20;99.90
9193;DHT22;4631;49.296;10.560;2024-01-11T01:38:48;-6.20;99.90
9193;DHT22;4631;49.296;10.560;2024-01-11T01:41:15;-6.20;99.90
9193;DHT22;4631;49.296;10.560;2024-01-11T01:43:41;-6.20;99.90
9193;DHT22;4631;49.296;10.560;2024-01-11T01:46:09;-6.20;99.90
9193;DHT22;4631;49.296;10.560;2024-01-11T01:48:36;-6.20;99.90
9193;DHT22;4631;49.296;10.560;2024-01-11T01:51:03;-6.20;99.90
9193;DHT22;4631;49.296;10.560;2024-01-11T01:53:30;-6.20;99.90
9193;DHT22;4631;49.296;10.560;2024-01-11T01:55:56;-6.20;99.90
9193;DHT22;4631;49.296;10.560;2024-01-11T01:58:23;-6.20;99.90
9193;DHT22;4631;49.296;10.560;2024-01-11T02:00:50;-6.30;99.90
9193;DHT22;4631;49.296;10.560;2024-01-11T02:03:19;-6.20;99.90
9193;DHT22;4631;49.296;10.560;2024-01-11T02:05:46;-6.30;99.90
9193;DHT22;4631;49.296;10.560;2024-01-11T02:08:15;-6.20;99.90
9193;DHT22;4631;49.296;10.560;2024-01-11T02:10:42;-6.20;99.90
9193;DHT22;4631;49.296;10.560;2024-01-11T02:13:09;-6.40;99.90
9193;DHT22;4631;49.296;10.560;2024-01-11T02:15:36;-6.40;99.90
9193;DHT22;4631;49.296;10.560;2024-01-11T02:18:03;-6.50;99.90
9193;DHT22;4631;49.296;10.560;2024-01-11T02:20:31;-6.50;99.90
9193;DHT22;4631;49.296;10.560;2024-01-11T02:22:58;-6.50;99.90
9193;DHT22;4631;49.296;10.560;2024-01-11T02:25:29;-6.50;99.90
9193;DHT22;4631;49.296;10.560;2024-01-11T02:27:55;-6.50;99.90
9193;DHT22;4631;49.296;10.560;2024-01-11T02:30:22;-6.50;99.90
9193;DHT22;4631;49.296;10.560;2024-01-11T02:32:49;-6.50;99.90
9193;DHT22;4631;49.296;10.560;2024-01-11T02:35:16;-6.50;99.90
9193;DHT22;4631;49.296;10.560;2024-01-11T02:37:43;-6.50;99.90
9193;DHT22;4631;49.296;10.560;2024-01-11T02:40:10;-6.50;99.90
9193;DHT22;4631;49.296;10.560;2024-01-11T02:42:40;-6.60;99.90
9193;DHT22;4631;49.296;10.560;2024-01-11T02:45:07;-6.60;99.90
9193;DHT22;4631;49.296;10.560;2024-01-11T02:47:33;-6.60;99.90
9193;DHT22;4631;49.296;10.560;2024-01-11T02:50:00;-6.60;99.90
9193;DHT22;4631;49.296;10.560;2024-01-11T02:52:27;-6.60;99.90
9193;DHT22;4631;49.296;10.560;2024-01-11T02:54:53;-6.60;99.90
9193;DHT22;4631;49.296;10.560;2024-01-11T02:57:20;-6.60;99.90
9193;DHT22;4631;49.296;10.560;2024-01-11T02:59:49;-6.50;99.90
9193;DHT22;4631;49.296;10.560;2024-01-11T03:02:15;-6.60;99.90
9193;DHT22;4631;49.296;10.560;2024-01-11T03:04:42;-6.60;99.90
9193;DHT22;4631;49.296;10.560;2024-01-11T03:07:09;-6.30;99.90
9193;DHT22;4631;49.296;10.560;2024-01-11T03:09:36;-6.60;99.90
9193;DHT22;4631;49.296;10.560;2024-01-11T03:12:03;-6.60;99.90
9193;DHT22;4631;49.296;10.560;2024-01-11T03:14:31;-6.70;99.90
9193;DHT22;4631;49.296;10.560;2024-01-11T03:17:00;-6.70;99.90
9193;DHT22;4631;49.296;10.560;2024-01-11T03:19:26;-6.70;99.90
9193;DHT22;4631;49.296;10.560;2024-01-11T03:21:53;-6.80;99.90
9193;DHT22;4631;49.296;10.560;2024-01-11T03:24:20;-6.80;99.90
9193;DHT22;4631;49.296;10.560;2024-01-11T03:26:47;-6.80;99.90
9193;DHT22;4631;49.296;10.560;2024-01-11T03:29:13;-6.90;99.90
9193;DHT22;4631;49.296;10.560;2024-01-11T03:31:40;-6.90;99.90
9193;DHT22;4631;49.296;10.560;2024-01-11T03:34:09;-6.90;99.90
9193;DHT22;4631;49.296;10.560;2024-01-11T03:36:36;-6.90;99.90
9193;DHT22;4631;49.296;10.560;2024-01-11T03:39:03;-6.90;99.90
9193;DHT22;4631;49.296;10.560;2024-01-11T03:41:29;-6.90;99.90
9193;DHT22;4631;49.296;10.560;2024-01-11T03:43:56;-6.90;99.90
9193;DHT22;4631;49.296;10.560;2024-01-11T03:46:22;-6.90;99.90
9193;DHT22;4631;49.296;10.560;2024-01-11T03:48:49;-7.00;99.90
9193;DHT22;4631;49.296;10.560;2024-01-11T03:51:17;-7.00;99.90
9193;DHT22;4631;49.296;10.560;2024-01-11T03:53:44;-7.00;99.90
9193;DHT22;4631;49.296;10.560;2024-01-11T03:56:11;-7.00;99.90
9193;DHT22;4631;49.296;10.560;2024-01-11T03:58:37;-7.00;99.90
9193;DHT22;4631;49.296;10.560;2024-01-11T04:01:07;-7.00;99.90
9193;DHT22;4631;49.296;10.560;2024-01-11T04:03:35;-7.00;99.90
9193;DHT22;4631;49.296;10.560;2024-01-11T04:06:02;-7.00;99.90
9193;DHT22;4631;49.296;10.560;2024-01-11T04:08:30;-7.00;99.90
9193;DHT22;4631;49.296;10.560;2024-01-11T04:10:56;-7.00;99.90
9193;DHT22;4631;49.296;10.560;2024-01-11T04:13:23;-7.00;99.90
9193;DHT22;4631;49.296;10.560;2024-01-11T04:15:50;-7.00;99.90
9193;DHT22;4631;49.296;10.560;2024-01-11T04:18:17;-7.00;99.90
9193;DHT22;4631;49.296;10.560;2024-01-11T04:20:43;-7.00;99.90
9193;DHT22;4631;49.296;10.560;2024-01-11T04:23:10;-7.00;99.90
9193;DHT22;4631;49.296;10.560;2024-01-11T04:25:38;-7.00;99.90
9193;DHT22;4631;49.296;10.560;2024-01-11T04:28:05;-7.10;99.90
9193;DHT22;4631;49.296;10.560;2024-01-11T04:30:31;-7.10;99.90
9193;DHT22;4631;49.296;10.560;2024-01-11T04:32:58;-7.00;99.90
9193;DHT22;4631;49.296;10.560;2024-01-11T04:35:25;-7.10;99.90
9193;DHT22;4631;49.296;10.560;2024-01-11T04:37:52;-7.10;99.90
9193;DHT22;4631;49.296;10.560;2024-01-11T04:40:18;-7.20;99.90
9193;DHT22;4631;49.296;10.560;2024-01-11T04:42:46;-7.20;99.90
9193;DHT22;4631;49.296;10.560;2024-01-11T04:45:13;-7.30;99.90
9193;DHT22;4631;49.296;10.560;2024-01-11T04:47:39;-7.30;99.90
9193;DHT22;4631;49.296;10.560;2024-01-11T04:50:07;-7.30;99.90
9193;DHT22;4631;49.296;10.560;2024-01-11T04:52:34;-7.30;99.90
9193;DHT22;4631;49.296;10.560;2024-01-11T04:55:00;-7.30;99.90
9193;DHT22;4631;49.296;10.560;2024-01-11T04:57:27;-7.30;99.90
9193;DHT22;4631;49.296;10.560;2024-01-11T04:59:55;-7.30;99.90
9193;DHT22;4631;49.296;10.560;2024-01-11T05:02:21;-7.30;99.90
9193;DHT22;4631;49.296;10.560;2024-01-11T05:04:48;-7.30;99.90
9193;DHT22;4631;49.296;10.560;2024-01-11T05:07:15;-7.30;99.90
9193;DHT22;4631;49.296;10.560;2024-01-11T05:09:41;-7.30;99.90
9193;DHT22;4631;49.296;10.560;2024-01-11T05:12:08;-7.30;99.90
9193;DHT22;4631;49.296;10.560;2024-01-11T05:14:35;-7.30;99.90
9193;DHT22;4631;49.296;10.560;2024-01-11T05:17:03;-7.30;99.90
9193;DHT22;4631;49.296;10.560;2024-01-11T05:19:29;-7.30;99.90
9193;DHT22;4631;49.296;10.560;2024-01-11T05:21:56;-7.30;99.90
9193;DHT22;4631;49.296;10.560;2024-01-11T05:24:23;-7.30;99.90
9193;DHT22;4631;49.296;10.560;2024-01-11T05:26:49;-7.30;99.90
9193;DHT22;4631;49.296;10.560;2024-01-11T05:29:16;-7.30;99.90
9193;DHT22;4631;49.296;10.560;2024-01-11T05:31:43;-7.30;99.90
9193;DHT22;4631;49.296;10.560;2024-01-11T05:34:14;-7.30;99.90
9193;DHT22;4631;49.296;10.560;2024-01-11T05:36:41;-7.30;99.90
9193;DHT22;4631;49.296;10.560;2024-01-11T05:39:11;-7.30;99.90
9193;DHT22;4631;49.296;10.560;2024-01-11T05:41:43;-7.30;99.90
9193;DHT22;4631;49.296;10.560;2024-01-11T05:44:10;-7.40;99.90
9193;DHT22;4631;49.296;10.560;2024-01-11T05:46:43;-7.30;99.90
9193;DHT22;4631;49.296;10.560;2024-01-11T05:49:16;-7.30;99.90
9193;DHT22;4631;49.296;10.560;2024-01-11T05:51:42;-7.30;99.90
9193;DHT22;4631;49.296;10.560;2024-01-11T05:54:09;-7.30;99.90
9193;DHT22;4631;49.296;10.560;2024-01-11T05:56:36;-7.30;99.90
9193;DHT22;4631;49.296;10.560;2024-01-11T05:59:02;-7.40;99.90
9193;DHT22;4631;49.296;10.560;2024-01-11T06:01:29;-7.40;99.90
9193;DHT22;4631;49.296;10.560;2024-01-11T06:03:57;-7.40;99.90
9193;DHT22;4631;49.296;10.560;2024-01-11T06:06:25;-7.50;99.90
9193;DHT22;4631;49.296;10.560;2024-01-11T06:08:51;-7.60;99.90
9193;DHT22;4631;49.296;10.560;2024-01-11T06:11:18;-7.60;99.90
9193;DHT22;4631;49.296;10.560;2024-01-11T06:13:45;-7.60;99.90
9193;DHT22;4631;49.296;10.560;2024-01-11T06:16:12;-7.70;99.90
9193;DHT22;4631;49.296;10.560;2024-01-11T06:18:39;-7.70;99.90
9193;DHT22;4631;49.296;10.560;2024-01-11T06:21:07;-7.80;99.90
9193;DHT22;4631;49.296;10.560;2024-01-11T06:23:38;-7.70;99.90
9193;DHT22;4631;49.296;10.560;2024-01-11T06:26:05;-7.70;99.90
9193;DHT22;4631;49.296;10.560;2024-01-11T06:28:32;-7.70;99.90
9193;DHT22;4631;49.296;10.560;2024-01-11T06:30:58;-7.70;99.90
9193;DHT22;4631;49.296;10.560;2024-01-11T06:33:25;-7.70;99.90
9193;DHT22;4631;49.296;10.560;2024-01-11T06:35:51;-7.80;99.90
9193;DHT22;4631;49.296;10.560;2024-01-11T06:38:18;-7.80;99.90
9193;DHT22;4631;49.296;10.560;2024-01-11T06:40:46;-7.80;99.90
9193;DHT22;4631;49.296;10.560;2024-01-11T06:43:13;-7.80;99.90
9193;DHT22;4631;49.296;10.560;2024-01-11T06:45:40;-7.80;99.90
9193;DHT22;4631;49.296;10.560;2024-01-11T06:48:06;-7.80;99.90
9193;DHT22;4631;49.296;10.560;2024-01-11T06:50:33;-7.70;99.90
9193;DHT22;4631;49.296;10.560;2024-01-11T06:52:59;-7.80;99.90
9193;DHT22;4631;49.296;10.560;2024-01-11T06:55:26;-7.70;99.90
9193;DHT22;4631;49.296;10.560;2024-01-11T06:57:54;-7.70;99.90
9193;DHT22;4631;49.296;10.560;2024-01-11T07:00:21;-7.60;99.90
9193;DHT22;4631;49.296;10.560;2024-01-11T07:02:48;-7.70;99.90
9193;DHT22;4631;49.296;10.560;2024-01-11T07:05:15;-7.70;99.90
9193;DHT22;4631;49.296;10.560;2024-01-11T07:07:41;-7.70;99.90
9193;DHT22;4631;49.296;10.560;2024-01-11T07:10:08;-7.70;99.90
9193;DHT22;4631;49.296;10.560;2024-01-11T07:12:35;-7.70;99.90
9193;DHT22;4631;49.296;10.560;2024-01-11T07:15:04;-7.70;99.90
9193;DHT22;4631;49.296;10.560;2024-01-11T07:17:33;-7.80;99.90
9193;DHT22;4631;49.296;10.560;2024-01-11T07:20:00;-7.80;99.90
9193;DHT22;4631;49.296;10.560;2024-01-11T07:22:28;-7.70;99.90
9193;DHT22;4631;49.296;10.560;2024-01-11T07:24:55;-7.70;99.90
9193;DHT22;4631;49.296;10.560;2024-01-11T07:27:21;-7.70;99.90
9193;DHT22;4631;49.296;10.560;2024-01-11T07:29:51;-7.70;99.90
9193;DHT22;4631;49.296;10.560;2024-01-11T07:32:25;-7.70;99.90
9193;DHT22;4631;49.296;10.560;2024-01-11T07:34:52;-7.70;99.90
9193;DHT22;4631;49.296;10.560;2024-01-11T07:37:18;-7.60;99.90
9193;DHT22;4631;49.296;10.560;2024-01-11T07:39:45;-7.60;99.90
9193;DHT22;4631;49.296;10.560;2024-01-11T07:42:13;-7.60;99.90
9193;DHT22;4631;49.296;10.560;2024-01-11T07:44:41;-7.60;99.90
9193;DHT22;4631;49.296;10.560;2024-01-11T07:47:08;-7.60;99.90
9193;DHT22;4631;49.296;10.560;2024-01-11T07:49:36;-7.60;99.90
9193;DHT22;4631;49.296;10.560;2024-01-11T07:52:09;-7.60;99.90
9193;DHT22;4631;49.296;10.560;2024-01-11T07:54:36;-7.60;99.90
9193;DHT22;4631;49.296;10.560;2024-01-11T07:57:03;-7.70;99.90
9193;DHT22;4631;49.296;10.560;2024-01-11T07:59:32;-7.70;99.90
9193;DHT22;4631;49.296;10.560;2024-01-11T08:02:06;-7.70;99.90
9193;DHT22;4631;49.296;10.560;2024-01-11T08:04:46;-7.70;99.90
9193;DHT22;4631;49.296;10.560;2024-01-11T08:07:13;-7.70;99.90
9193;DHT22;4631;49.296;10.560;2024-01-11T08:09:40;-7.70;99.90
9193;DHT22;4631;49.296;10.560;2024-01-11T08:12:10;-7.60;99.90
9193;DHT22;4631;49.296;10.560;2024-01-11T08:14:37;-7.60;99.90
9193;DHT22;4631;49.296;10.560;2024-01-11T08:17:02;-7.50;99.90
9193;DHT22;4631;49.296;10.560;2024-01-11T08:19:30;-7.50;99.90
9193;DHT22;4631;49.296;10.560;2024-01-11T08:21:58;-7.50;99.90
9193;DHT22;4631;49.296;10.560;2024-01-11T08:24:27;-7.40;99.90
9193;DHT22;4631;49.296;10.560;2024-01-11T08:27:03;-7.40;99.90
9193;DHT22;4631;49.296;10.560;2024-01-11T08:29:29;-7.40;99.90
9193;DHT22;4631;49.296;10.560;2024-01-11T08:31:59;-7.30;99.90
9193;DHT22;4631;49.296;10.560;2024-01-11T08:34:35;-7.30;99.90
9193;DHT22;4631;49.296;10.560;2024-01-11T08:37:03;-7.20;99.90
9193;DHT22;4631;49.296;10.560;2024-01-11T08:39:29;-7.20;99.90
9193;DHT22;4631;49.296;10.560;2024-01-11T08:41:56;-7.10;99.90
9193;DHT22;4631;49.296;10.560;2024-01-11T08:44:23;-7.00;99.90
9193;DHT22;4631;49.296;10.560;2024-01-11T08:46:50;-7.00;99.90
9193;DHT22;4631;49.296;10.560;2024-01-11T08:49:16;-6.90;99.90
9193;DHT22;4631;49.296;10.560;2024-01-11T08:51:43;-6.80;99.90
9193;DHT22;4631;49.296;10.560;2024-01-11T08:54:11;-6.80;99.90
9193;DHT22;4631;49.296;10.560;2024-01-11T08:56:37;-6.70;99.90
9193;DHT22;4631;49.296;10.560;2024-01-11T08:59:05;-6.70;99.90
9193;DHT22;4631;49.296;10.560;2024-01-11T09:01:33;-6.60;99.90
9193;DHT22;4631;49.296;10.560;2024-01-11T09:04:01;-6.60;99.90
9193;DHT22;4631;49.296;10.560;2024-01-11T09:06:27;-6.50;99.90
9193;DHT22;4631;49.296;10.560;2024-01-11T09:08:54;-6.40;99.90
9193;DHT22;4631;49.296;10.560;2024-01-11T09:11:22;-6.40;99.90
9193;DHT22;4631;49.296;10.560;2024-01-11T09:13:48;-6.30;99.90
9193;DHT22;4631;49.296;10.560;2024-01-11T09:16:16;-6.20;99.90
9193;DHT22;4631;49.296;10.560;2024-01-11T09:18:43;-6.10;99.90
9193;DHT22;4631;49.296;10.560;2024-01-11T09:21:10;-6.00;99.90
9193;DHT22;4631;49.296;10.560;2024-01-11T09:23:37;-6.00;99.90
9193;DHT22;4631;49.296;10.560;2024-01-11T09:26:04;-5.80;99.90
9193;DHT22;4631;49.296;10.560;2024-01-11T09:28:32;-5.70;99.90
9193;DHT22;4631;49.296;10.560;2024-01-11T09:30:59;-5.50;99.90
9193;DHT22;4631;49.296;10.560;2024-01-11T09:33:27;-5.40;99.90
9193;DHT22;4631;49.296;10.560;2024-01-11T09:35:54;-5.40;99.90
9193;DHT22;4631;49.296;10.560;2024-01-11T09:38:21;-5.30;99.90
9193;DHT22;4631;49.296;10.560;2024-01-11T09:40:48;-5.20;99.90
9193;DHT22;4631;49.296;10.560;2024-01-11T09:43:20;-5.20;99.90
9193;DHT22;4631;49.296;10.560;2024-01-11T09:45:49;-5.10;99.90
9193;DHT22;4631;49.296;10.560;2024-01-11T09:48:16;-5.00;99.90
9193;DHT22;4631;49.296;10.560;2024-01-11T09:50:43;-4.90;99.90
9193;DHT22;4631;49.296;10.560;2024-01-11T09:53:10;-4.80;99.90
9193;DHT22;4631;49.296;10.560;2024-01-11T09:55:36;-4.70;99.90
9193;DHT22;4631;49.296;10.560;2024-01-11T09:58:03;-4.70;99.90
9193;DHT22;4631;49.296;10.560;2024-01-11T10:00:30;-4.60;99.90
9193;DHT22;4631;49.296;10.560;2024-01-11T10:02:59;-4.60;99.90
9193;DHT22;4631;49.296;10.560;2024-01-11T10:05:25;-4.60;99.90
9193;DHT22;4631;49.296;10.560;2024-01-11T10:07:53;-4.50;99.90
9193;DHT22;4631;49.296;10.560;2024-01-11T10:10:20;-4.40;99.90
9193;DHT22;4631;49.296;10.560;2024-01-11T10:12:47;-4.40;99.90
9193;DHT22;4631;49.296;10.560;2024-01-11T10:15:14;-4.30;99.90
9193;DHT22;4631;49.296;10.560;2024-01-11T10:17:41;-4.20;99.90
9193;DHT22;4631;49.296;10.560;2024-01-11T10:20:11;-4.10;99.90
9193;DHT22;4631;49.296;10.560;2024-01-11T10:22:39;-3.90;99.90
9193;DHT22;4631;49.296;10.560;2024-01-11T10:25:09;-3.80;99.90
9193;DHT22;4631;49.296;10.560;2024-01-11T10:27:37;-3.80;99.90
9193;DHT22;4631;49.296;10.560;2024-01-11T10:30:04;-3.70;99.90
9193;DHT22;4631;49.296;10.560;2024-01-11T10:32:33;-3.60;99.90
9193;DHT22;4631;49.296;10.560;2024-01-11T10:35:00;-3.50;99.90
9193;DHT22;4631;49.296;10.560;2024-01-11T10:37:31;-3.40;99.90
9193;DHT22;4631;49.296;10.560;2024-01-11T10:40:01;-3.30;99.90
9193;DHT22;4631;49.296;10.560;2024-01-11T10:42:29;-3.20;99.90
9193;DHT22;4631;49.296;10.560;2024-01-11T10:44:57;-3.00;99.90
9193;DHT22;4631;49.296;10.560;2024-01-11T10:47:25;-2.90;99.90
9193;DHT22;4631;49.296;10.560;2024-01-11T10:49:56;-2.70;99.90
9193;DHT22;4631;49.296;10.560;2024-01-11T10:52:27;-2.60;99.90
9193;DHT22;4631;49.296;10.560;2024-01-11T10:54:56;-2.40;99.90
9193;DHT22;4631;49.296;10.560;2024-01-11T10:57:24;-2.20;99.90
9193;DHT22;4631;49.296;10.560;2024-01-11T10:59:51;-2.00;99.90
9193;DHT22;4631;49.296;10.560;2024-01-11T11:02:18;-1.90;99.90
9193;DHT22;4631;49.296;10.560;2024-01-11T11:04:47;-1.70;99.90
9193;DHT22;4631;49.296;10.560;2024-01-11T11:07:15;-1.60;99.90
9193;DHT22;4631;49.296;10.560;2024-01-11T11:09:42;-1.40;99.90
9193;DHT22;4631;49.296;10.560;2024-01-11T11:12:12;-1.30;99.90
9193;DHT22;4631;49.296;10.560;2024-01-11T11:14:39;-1.10;99.90
9193;DHT22;4631;49.296;10.560;2024-01-11T11:17:06;-1.00;99.90
9193;DHT22;4631;49.296;10.560;2024-01-11T11:19:33;-0.80;99.90
9193;DHT22;4631;49.296;10.560;2024-01-11T11:22:00;-0.70;99.90
9193;DHT22;4631;49.296;10.560;2024-01-11T11:24:30;-0.60;99.90
9193;DHT22;4631;49.296;10.560;2024-01-11T11:26:56;-0.40;99.90
9193;DHT22;4631;49.296;10.560;2024-01-11T11:29:25;-0.20;99.90
9193;DHT22;4631;49.296;10.560;2024-01-11T11:31:52;0.00;99.90
9193;DHT22;4631;49.296;10.560;2024-01-11T11:34:19;0.20;99.90
9193;DHT22;4631;49.296;10.560;2024-01-11T11:36:46;0.30;99.90
9193;DHT22;4631;49.296;10.560;2024-01-11T11:39:14;0.40;99.90
9193;DHT22;4631;49.296;10.560;2024-01-11T11:41:45;0.60;99.90
9193;DHT22;4631;49.296;10.560;2024-01-11T11:44:12;0.70;99.90
9193;DHT22;4631;49.296;10.560;2024-01-11T11:46:40;0.80;99.90
9193;DHT22;4631;49.296;10.560;2024-01-11T11:49:07;0.80;99.90
9193;DHT22;4631;49.296;10.560;2024-01-11T11:51:35;0.80;99.90
9193;DHT22;4631;49.296;10.560;2024-01-11T11:54:05;1.00;99.90
9193;DHT22;4631;49.296;10.560;2024-01-11T11:56:34;1.20;99.90
9193;DHT22;4631;49.296;10.560;2024-01-11T11:59:02;1.40;99.90
9193;DHT22;4631;49.296;10.560;2024-01-11T12:01:29;1.50;99.90
9193;DHT22;4631;49.296;10.560;2024-01-11T12:03:59;1.70;99.90
9193;DHT22;4631;49.296;10.560;2024-01-11T12:06:27;1.90;99.90
9193;DHT22;4631;49.296;10.560;2024-01-11T12:08:54;2.00;99.90
9193;DHT22;4631;49.296;10.560;2024-01-11T12:11:21;2.00;99.90
9193;DHT22;4631;49.296;10.560;2024-01-11T12:13:49;2.00;99.90
9193;DHT22;4631;49.296;10.560;2024-01-11T12:16:17;2.00;99.90
9193;DHT22;4631;49.296;10.560;2024-01-11T12:18:44;2.00;99.90
9193;DHT22;4631;49.296;10.560;2024-01-11T12:21:12;2.00;99.90
9193;DHT22;4631;49.296;10.560;2024-01-11T12:23:39;1.90;99.90
9193;DHT22;4631;49.296;10.560;2024-01-11T12:26:06;1.90;99.90
9193;DHT22;4631;49.296;10.560;2024-01-11T12:28:36;2.00;99.90
9193;DHT22;4631;49.296;10.560;2024-01-11T12:31:04;2.10;99.90
9193;DHT22;4631;49.296;10.560;2024-01-11T12:33:30;2.20;99.90
9193;DHT22;4631;49.296;10.560;2024-01-11T12:35:57;2.40;99.90
9193;DHT22;4631;49.296;10.560;2024-01-11T12:38:25;2.50;99.90
9193;DHT22;4631;49.296;10.560;2024-01-11T12:40:52;2.50;99.90
9193;DHT22;4631;49.296;10.560;2024-01-11T12:43:18;2.60;99.90
9193;DHT22;4631;49.296;10.560;2024-01-11T12:45:45;2.50;99.90
9193;DHT22;4631;49.296;10.560;2024-01-11T12:48:12;2.60;99.90
9193;DHT22;4631;49.296;10.560;2024-01-11T12:50:41;2.60;99.90
9193;DHT22;4631;49.296;10.560;2024-01-11T12:53:08;2.60;99.90
9193;DHT22;4631;49.296;10.560;2024-01-11T12:55:39;2.70;99.90
9193;DHT22;4631;49.296;10.560;2024-01-11T12:58:06;2.80;99.90
9193;DHT22;4631;49.296;10.560;2024-01-11T13:00:34;2.70;99.90
9193;DHT22;4631;49.296;10.560;2024-01-11T13:03:01;2.70;99.90
9193;DHT22;4631;49.296;10.560;2024-01-11T13:05:28;2.70;99.90
9193;DHT22;4631;49.296;10.560;2024-01-11T13:07:57;2.70;99.90
9193;DHT22;4631;49.296;10.560;2024-01-11T13:10:24;2.60;99.90
9193;DHT22;4631;49.296;10.560;2024-01-11T13:12:55;2.70;99.90
9193;DHT22;4631;49.296;10.560;2024-01-11T13:15:21;2.70;99.90
9193;DHT22;4631;49.296;10.560;2024-01-11T13:17:49;2.70;99.90
9193;DHT22;4631;49.296;10.560;2024-01-11T13:20:16;2.70;99.90
9193;DHT22;4631;49.296;10.560;2024-01-11T13:22:43;2.70;99.90
9193;DHT22;4631;49.296;10.560;2024-01-11T13:25:09;2.70;99.90
9193;DHT22;4631;49.296;10.560;2024-01-11T13:27:36;2.80;99.90
9193;DHT22;4631;49.296;10.560;2024-01-11T13:30:05;2.70;99.90
9193;DHT22;4631;49.296;10.560;2024-01-11T13:32:33;2.60;99.90
9193;DHT22;4631;49.296;10.560;2024-01-11T13:34:59;2.50;99.90
9193;DHT22;4631;49.296;10.560;2024-01-11T13:37:26;2.50;99.90
9193;DHT22;4631;49.296;10.560;2024-01-11T13:39:53;2.50;99.90
9193;DHT22;4631;49.296;10.560;2024-01-11T13:42:19;2.40;99.90
9193;DHT22;4631;49.296;10.560;2024-01-11T13:44:46;2.30;99.90
9193;DHT22;4631;49.296;10.560;2024-01-11T13:47:14;2.30;99.90
9193;DHT22;4631;49.296;10.560;2024-01-11T13:49:40;2.20;99.90
9193;DHT22;4631;49.296;10.560;2024-01-11T13:52:07;2.00;99.90
9193;DHT22;4631;49.296;10.560;2024-01-11T13:54:34;1.80;99.90
9193;DHT22;4631;49.296;10.560;2024-01-11T13:57:00;1.70;99.90
9193;DHT22;4631;49.296;10.560;2024-01-11T13:59:28;1.60;99.90
9193;DHT22;4631;49.296;10.560;2024-01-11T14:01:54;1.40;99.90
9193;DHT22;4631;49.296;10.560;2024-01-11T14:04:22;1.30;99.90
9193;DHT22;4631;49.296;10.560;2024-01-11T14:06:49;1.10;99.90
9193;DHT22;4631;49.296;10.560;2024-01-11T14:09:16;1.10;99.90
9193;DHT22;4631;49.296;10.560;2024-01-11T14:11:43;1.00;99.90
9193;DHT22;4631;49.296;10.560;2024-01-11T14:14:10;0.90;99.90
9193;DHT22;4631;49.296;10.560;2024-01-11T14:16:36;0.80;99.90
9193;DHT22;4631;49.296;10.560;2024-01-11T14:19:03;0.80;99.90
9193;DHT22;4631;49.296;10.560;2024-01-11T14:21:31;0.80;99.90
9193;DHT22;4631;49.296;10.560;2024-01-11T14:23:58;0.70;99.90
9193;DHT22;4631;49.296;10.560;2024-01-11T14:26:24;0.70;99.90
9193;DHT22;4631;49.296;10.560;2024-01-11T14:28:51;0.70;99.90
9193;DHT22;4631;49.296;10.560;2024-01-11T14:31:19;0.70;99.90
9193;DHT22;4631;49.296;10.560;2024-01-11T14:33:46;0.60;99.90
9193;DHT22;4631;49.296;10.560;2024-01-11T14:36:13;0.70;99.90
9193;DHT22;4631;49.296;10.560;2024-01-11T14:38:42;0.70;99.90
9193;DHT22;4631;49.296;10.560;2024-01-11T14:41:09;0.80;99.90
9193;DHT22;4631;49.296;10.560;2024-01-11T14:43:35;0.80;99.90
9193;DHT22;4631;49.296;10.560;2024-01-11T14:46:02;0.80;99.90
9193;DHT22;4631;49.296;10.560;2024-01-11T14:48:30;0.80;99.90
9193;DHT22;4631;49.296;10.560;2024-01-11T14:50:57;0.80;99.90
9193;DHT22;4631;49.296;10.560;2024-01-11T14:53:24;0.80;99.90
9193;DHT22;4631;49.296;10.560;2024-01-11T14:55:52;0.80;99.90
9193;DHT22;4631;49.296;10.560;2024-01-11T14:58:18;0.80;99.90
9193;DHT22;4631;49.296;10.560;2024-01-11T15:00:45;0.70;99.90
9193;DHT22;4631;49.296;10.560;2024-01-11T15:03:12;0.70;99.90
9193;DHT22;4631;49.296;10.560;2024-01-11T15:05:39;0.70;99.90
9193;DHT22;4631;49.296;10.560;2024-01-11T15:08:06;0.60;99.90
9193;DHT22;4631;49.296;10.560;2024-01-11T15:10:32;0.60;99.90
9193;DHT22;4631;49.296;10.560;2024-01-11T15:13:00;0.50;99.90
9193;DHT22;4631;49.296;10.560;2024-01-11T15:15:27;0.50;99.90
9193;DHT22;4631;49.296;10.560;2024-01-11T15:17:54;0.40;99.90
9193;DHT22;4631;49.296;10.560;2024-01-11T15:20:21;0.40;99.90
9193;DHT22;4631;49.296;10.560;2024-01-11T15:22:48;0.30;99.90
9193;DHT22;4631;49.296;10.560;2024-01-11T15:25:14;0.30;99.90
9193;DHT22;4631;49.296;10.560;2024-01-11T15:27:42;0.20;99.90
9193;DHT22;4631;49.296;10.560;2024-01-11T15:30:10;0.20;99.90
9193;DHT22;4631;49.296;10.560;2024-01-11T15:32:38;0.10;99.90
9193;DHT22;4631;49.296;10.560;2024-01-11T15:35:05;0.10;99.90
9193;DHT22;4631;49.296;10.560;2024-01-11T15:37:33;0.00;99.90
9193;DHT22;4631;49.296;10.560;2024-01-11T15:39:59;0.00;99.90
9193;DHT22;4631;49.296;10.560;2024-01-11T15:42:27;-0.10;99.90
9193;DHT22;4631;49.296;10.560;2024-01-11T15:44:54;-0.20;99.90
9193;DHT22;4631;49.296;10.560;2024-01-11T15:47:22;-0.20;99.90
9193;DHT22;4631;49.296;10.560;2024-01-11T15:49:48;-0.30;99.90